sensor_id;sensor_type;location;lat;lon;timestamp;temperature;humidity
56878;DHT22;42765;44.764;19.676;2022-09-20T08:02:47;12.60;99.90
56878;DHT22;42765;44.764;19.676;2022-09-20T08:05:13;14.50;99.90
56878;DHT22;42765;44.764;19.676;2022-09-20T08:07:38;14.50;99.90
56878;DHT22;42765;44.764;19.676;2022-09-20T08:10:04;14.60;99.90
56878;DHT22;42765;44.764;19.676;2022-09-20T08:12:30;14.80;99.90
56878;DHT22;42765;44.764;19.676;2022-09-20T08:14:57;15.00;99.90
56878;DHT22;42765;44.764;19.676;2022-09-20T08:17:22;15.10;99.90
56878;DHT22;42765;44.764;19.676;2022-09-20T08:19:48;15.20;99.90
56878;DHT22;42765;44.764;19.676;2022-09-20T08:22:17;15.50;99.90
56878;DHT22;42765;44.764;19.676;2022-09-20T08:24:43;15.60;99.90
56878;DHT22;42765;44.764;19.676;2022-09-20T08:27:09;15.70;99.90
56878;DHT22;42765;44.764;19.676;2022-09-20T08:29:35;15.70;99.90
56878;DHT22;42765;44.764;19.676;2022-09-20T08:32:01;15.70;99.90
56878;DHT22;42765;44.764;19.676;2022-09-20T09:01:17;16.00;99.90
56878;DHT22;42765;44.764;19.676;2022-09-20T09:03:45;17.40;99.90
56878;DHT22;42765;44.764;19.676;2022-09-20T09:06:12;17.40;99.90
56878;DHT22;42765;44.764;19.676;2022-09-20T09:08:39;17.50;99.90
56878;DHT22;42765;44.764;19.676;2022-09-20T09:11:10;17.60;99.90
56878;DHT22;42765;44.764;19.676;2022-09-20T09:38:03;17.60;99.90
56878;DHT22;42765;44.764;19.676;2022-09-20T09:40:30;18.70;99.90
56878;DHT22;42765;44.764;19.676;2022-09-20T09:47:51;18.90;99.90
56878;DHT22;42765;44.764;19.676;2022-09-20T09:50:24;19.20;99.90
56878;DHT22;42765;44.764;19.676;2022-09-20T10:23:42;19.80;99.90
56878;DHT22;42765;44.764;19.676;2022-09-20T10:26:03;21.20;99.90
56878;DHT22;42765;44.764;19.676;2022-09-20T10:28:35;20.40;99.90
56878;DHT22;42765;44.764;19.676;2022-09-20T10:36:59;21.80;99.90
56878;DHT22;42765;44.764;19.676;2022-09-20T10:45:00;21.60;99.90
56878;DHT22;42765;44.764;19.676;2022-09-20T10:55:14;22.80;99.90
56878;DHT22;42765;44.764;19.676;2022-09-20T10:57:51;24.00;98.00
56878;DHT22;42765;44.764;19.676;2022-09-20T11:05:32;26.70;90.60
56878;DHT22;42765;44.764;19.676;2022-09-20T11:08:10;25.00;86.50
56878;DHT22;42765;44.764;19.676;2022-09-20T11:13:14;20.90;94.00
56878;DHT22;42765;44.764;19.676;2022-09-20T11:15:50;20.10;95.70
56878;DHT22;42765;44.764;19.676;2022-09-20T11:18:23;19.40;96.60
56878;DHT22;42765;44.764;19.676;2022-09-20T11:20:55;19.40;97.00
56878;DHT22;42765;44.764;19.676;2022-09-20T11:24:05;22.60;94.20
56878;DHT22;42765;44.764;19.676;2022-09-20T11:26:26;24.30;92.60
56878;DHT22;42765;44.764;19.676;2022-09-20T11:28:54;24.00;90.30
56878;DHT22;42765;44.764;19.676;2022-09-20T11:34:20;24.50;90.70
56878;DHT22;42765;44.764;19.676;2022-09-20T11:37:00;26.70;86.10
56878;DHT22;42765;44.764;19.676;2022-09-20T11:41:56;28.30;76.30
56878;DHT22;42765;44.764;19.676;2022-09-20T11:44:24;26.80;75.20
56878;DHT22;42765;44.764;19.676;2022-09-20T11:54:59;20.70;90.80
56878;DHT22;42765;44.764;19.676;2022-09-20T11:57:28;20.60;92.10
56878;DHT22;42765;44.764;19.676;2022-09-20T11:59:55;24.50;89.40
56878;DHT22;42765;44.764;19.676;2022-09-20T12:02:31;27.00;82.30
56878;DHT22;42765;44.764;19.676;2022-09-20T12:04:58;25.30;83.40
56878;DHT22;42765;44.764;19.676;2022-09-20T12:07:31;23.30;84.90
56878;DHT22;42765;44.764;19.676;2022-09-20T12:10:00;21.80;87.10
56878;DHT22;42765;44.764;19.676;2022-09-20T12:14:56;20.80;92.00
56878;DHT22;42765;44.764;19.676;2022-09-20T12:22:50;27.10;83.00
56878;DHT22;42765;44.764;19.676;2022-09-20T12:26:33;29.10;75.70
56878;DHT22;42765;44.764;19.676;2022-09-20T12:28:12;30.10;72.30
56878;DHT22;42765;44.764;19.676;2022-09-20T12:30:38;31.20;68.60
56878;DHT22;42765;44.764;19.676;2022-09-20T12:33:16;31.60;65.50
56878;DHT22;42765;44.764;19.676;2022-09-20T12:35:55;32.50;63.20
56878;DHT22;42765;44.764;19.676;2022-09-20T12:41:05;32.80;61.30
56878;DHT22;42765;44.764;19.676;2022-09-20T12:43:33;32.20;59.80
56878;DHT22;42765;44.764;19.676;2022-09-20T12:46:00;30.60;60.50
56878;DHT22;42765;44.764;19.676;2022-09-20T12:48:26;28.20;64.90
56878;DHT22;42765;44.764;19.676;2022-09-20T12:51:00;26.60;68.60
56878;DHT22;42765;44.764;19.676;2022-09-20T12:53:56;25.10;72.30
56878;DHT22;42765;44.764;19.676;2022-09-20T12:56:22;25.50;73.90
56878;DHT22;42765;44.764;19.676;2022-09-20T12:58:52;27.10;71.20
56878;DHT22;42765;44.764;19.676;2022-09-20T13:03:45;31.10;63.90
56878;DHT22;42765;44.764;19.676;2022-09-20T13:13:49;27.70;61.70
56878;DHT22;42765;44.764;19.676;2022-09-20T13:16:19;26.10;65.30
56878;DHT22;42765;44.764;19.676;2022-09-20T13:18:56;24.60;68.30
56878;DHT22;42765;44.764;19.676;2022-09-20T13:21:22;25.00;70.10
56878;DHT22;42765;44.764;19.676;2022-09-20T13:23:48;27.10;65.10
56878;DHT22;42765;44.764;19.676;2022-09-20T13:26:15;26.80;64.10
56878;DHT22;42765;44.764;19.676;2022-09-20T13:28:48;25.20;67.00
56878;DHT22;42765;44.764;19.676;2022-09-20T13:31:26;23.80;70.70
56878;DHT22;42765;44.764;19.676;2022-09-20T13:33:52;22.70;73.90
56878;DHT22;42765;44.764;19.676;2022-09-20T13:36:23;21.80;74.80
56878;DHT22;42765;44.764;19.676;2022-09-20T13:38:50;21.70;77.30
56878;DHT22;42765;44.764;19.676;2022-09-20T13:41:17;21.20;79.20
56878;DHT22;42765;44.764;19.676;2022-09-20T13:43:46;21.10;80.70
56878;DHT22;42765;44.764;19.676;2022-09-20T13:46:17;21.00;80.90
56878;DHT22;42765;44.764;19.676;2022-09-20T13:51:31;20.50;81.70
56878;DHT22;42765;44.764;19.676;2022-09-20T13:56:43;20.20;83.60
56878;DHT22;42765;44.764;19.676;2022-09-20T13:59:09;20.20;84.00
56878;DHT22;42765;44.764;19.676;2022-09-20T14:01:41;20.10;85.30
56878;DHT22;42765;44.764;19.676;2022-09-20T14:04:19;20.10;86.30
56878;DHT22;42765;44.764;19.676;2022-09-20T14:06:46;20.00;85.90
56878;DHT22;42765;44.764;19.676;2022-09-20T14:09:19;19.90;85.30
56878;DHT22;42765;44.764;19.676;2022-09-20T14:11:45;19.80;85.30
56878;DHT22;42765;44.764;19.676;2022-09-20T14:14:11;19.60;87.30
56878;DHT22;42765;44.764;19.676;2022-09-20T14:16:38;19.60;89.20
56878;DHT22;42765;44.764;19.676;2022-09-20T14:19:05;19.60;87.90
56878;DHT22;42765;44.764;19.676;2022-09-20T14:21:32;19.60;90.00
56878;DHT22;42765;44.764;19.676;2022-09-20T14:26:36;19.80;90.60
56878;DHT22;42765;44.764;19.676;2022-09-20T14:31:46;19.80;91.40
56878;DHT22;42765;44.764;19.676;2022-09-20T14:34:12;19.90;90.60
56878;DHT22;42765;44.764;19.676;2022-09-20T14:36:37;20.20;90.60
56878;DHT22;42765;44.764;19.676;2022-09-20T14:39:04;20.30;91.10
56878;DHT22;42765;44.764;19.676;2022-09-20T14:41:36;20.30;90.80
56878;DHT22;42765;44.764;19.676;2022-09-20T14:44:03;20.30;90.70
56878;DHT22;42765;44.764;19.676;2022-09-20T14:46:34;20.10;91.00
56878;DHT22;42765;44.764;19.676;2022-09-20T14:49:19;19.70;91.50
56878;DHT22;42765;44.764;19.676;2022-09-20T14:51:46;19.50;92.30
56878;DHT22;42765;44.764;19.676;2022-09-20T14:56:41;19.20;92.70
56878;DHT22;42765;44.764;19.676;2022-09-20T14:59:19;19.10;93.50
56878;DHT22;42765;44.764;19.676;2022-09-20T15:02:00;18.90;92.60
56878;DHT22;42765;44.764;19.676;2022-09-20T15:04:27;18.70;94.80
56878;DHT22;42765;44.764;19.676;2022-09-20T15:06:53;18.60;94.80
56878;DHT22;42765;44.764;19.676;2022-09-20T15:09:19;18.40;95.00
56878;DHT22;42765;44.764;19.676;2022-09-20T15:11:45;18.20;95.90
56878;DHT22;42765;44.764;19.676;2022-09-20T15:14:11;18.10;96.30
56878;DHT22;42765;44.764;19.676;2022-09-20T15:16:37;17.90;95.00
56878;DHT22;42765;44.764;19.676;2022-09-20T15:19:02;17.70;93.40
56878;DHT22;42765;44.764;19.676;2022-09-20T15:21:30;17.60;92.70
56878;DHT22;42765;44.764;19.676;2022-09-20T15:23:56;17.50;92.90
56878;DHT22;42765;44.764;19.676;2022-09-20T15:26:22;17.50;93.70
56878;DHT22;42765;44.764;19.676;2022-09-20T15:28:47;17.20;94.00
56878;DHT22;42765;44.764;19.676;2022-09-20T15:31:13;17.10;94.70
56878;DHT22;42765;44.764;19.676;2022-09-20T15:33:39;16.90;94.80
56878;DHT22;42765;44.764;19.676;2022-09-20T15:36:06;16.80;95.70
56878;DHT22;42765;44.764;19.676;2022-09-20T15:38:32;16.70;96.90
56878;DHT22;42765;44.764;19.676;2022-09-20T15:48:18;16.60;99.10
56878;DHT22;42765;44.764;19.676;2022-09-20T20:46:31;11.10;99.90
56878;DHT22;42765;44.764;19.676;2022-09-20T20:48:57;10.90;99.90
